Time;durP1;ratioP1;P1;durP2;ratioP2;P2;SDS_P1;SDS_P2;PMS_P1;PMS_P2;Temp;Humidity;BMP_temperature;BMP_pressure;BME280_temperature;BME280_humidity;BME280_pressure;Samples;Min_cycle;Max_cycle;Signal;HPM_P1;HPM_P2
2024/02/10 00:01:00;;;;;;;7.22;3.70;;;;;;;13.13;48.98;98064.69;5030778;28;20041;-77
2024/02/10 00:03:28;;;;;;;8.05;3.90;;;;;;;13.06;49.12;98053.16;5032109;28;20099;-77
2024/02/10 00:05:55;;;;;;;7.25;3.40;;;;;;;13.08;49.46;98064.34;4997702;28;20515;-77
2024/02/10 00:08:22;;;;;;;7.75;3.50;;;;;;;13.03;49.20;98059.53;5028586;28;20133;-77
2024/02/10 00:10:48;;;;;;;5.18;3.53;;;;;;;13.07;49.48;98061.84;5014766;28;20068;-76
2024/02/10 00:13:15;;;;;;;9.10;4.03;;;;;;;13.00;49.58;98049.34;5030770;28;20116;-76
2024/02/10 00:15:41;;;;;;;8.10;3.72;;;;;;;12.97;49.42;98048.84;5030698;28;20484;-77
2024/02/10 00:18:10;;;;;;;8.48;4.10;;;;;;;12.99;49.29;98067.84;5013427;28;20480;-77
2024/02/10 00:20:36;;;;;;;5.32;3.85;;;;;;;12.95;49.25;98061.25;5014673;28;20033;-76
2024/02/10 00:23:04;;;;;;;6.68;3.80;;;;;;;12.93;49.41;98065.81;5029597;28;20038;-78
2024/02/10 00:25:31;;;;;;;7.28;3.42;;;;;;;12.82;49.40;98049.34;5013686;28;20393;-77
2024/02/10 00:28:02;;;;;;;7.60;3.50;;;;;;;12.83;49.27;98058.84;5030466;28;20117;-78
2024/02/10 00:30:29;;;;;;;5.82;3.42;;;;;;;12.84;49.53;98054.44;5030287;28;20037;-77
2024/02/10 00:32:56;;;;;;;9.57;3.90;;;;;;;12.83;49.58;98058.84;5014656;28;20172;-78
2024/02/10 00:35:22;;;;;;;7.47;3.70;;;;;;;12.77;49.68;98042.91;5014487;28;20400;-79
2024/02/10 00:37:53;;;;;;;7.05;4.03;;;;;;;12.72;49.82;98040.72;5012496;28;20118;-78
2024/02/10 00:40:18;;;;;;;7.40;4.00;;;;;;;12.73;49.55;98041.53;5029190;28;20036;-78
2024/02/10 00:42:44;;;;;;;9.05;3.97;;;;;;;12.75;49.70;98047.47;5029059;28;20144;-77
2024/02/10 00:45:09;;;;;;;8.10;3.80;;;;;;;12.67;49.62;98035.94;5029548;28;20037;-79
2024/02/10 00:47:35;;;;;;;6.10;3.95;;;;;;;12.69;49.92;98029.72;5012878;28;20037;-79
2024/02/10 00:50:03;;;;;;;6.32;3.60;;;;;;;12.63;49.80;98028.50;4996916;28;20045;-79
2024/02/10 00:52:28;;;;;;;6.73;3.67;;;;;;;12.60;49.92;98029.66;5014556;28;20029;-77
2024/02/10 00:54:56;;;;;;;7.03;4.18;;;;;;;12.62;50.01;98038.16;5014455;28;20032;-77
2024/02/10 00:57:21;;;;;;;6.30;3.80;;;;;;;12.56;50.15;98030.91;5014324;28;20472;-79
2024/02/10 00:59:48;;;;;;;5.75;3.72;;;;;;;12.54;49.96;98035.47;5014523;28;20088;-78
2024/02/10 01:02:17;;;;;;;7.30;3.70;;;;;;;12.55;50.21;98050.19;4998448;28;20045;-77
2024/02/10 01:04:46;;;;;;;8.57;4.15;;;;;;;12.55;50.17;98049.38;5014616;28;20080;-79
2024/02/10 01:07:14;;;;;;;7.20;4.22;;;;;;;12.53;50.09;98046.09;4997816;28;20073;-79
2024/02/10 01:09:40;;;;;;;7.82;3.97;;;;;;;12.48;50.37;98046.53;5032171;28;20064;-77
2024/02/10 01:12:06;;;;;;;7.28;4.07;;;;;;;12.50;50.02;98052.44;5014499;28;20079;-77
2024/02/10 01:14:32;;;;;;;6.18;3.83;;;;;;;12.49;49.96;98050.75;5014415;28;20037;-79
2024/02/10 01:16:57;;;;;;;8.32;4.10;;;;;;;12.48;50.00;98051.75;5031647;28;20495;-79
2024/02/10 01:19:25;;;;;;;9.70;3.80;;;;;;;12.48;49.99;98049.13;5014268;28;20029;-78
2024/02/10 01:21:55;;;;;;;10.35;4.20;;;;;;;12.41;50.19;98048.06;5030707;28;20055;-78
2024/02/10 01:24:27;;;;;;;10.38;4.22;;;;;;;12.39;50.36;98034.31;5015026;28;20571;-79
2024/02/10 01:26:53;;;;;;;12.80;4.57;;;;;;;12.40;50.17;98044.63;5031189;28;20030;-77
2024/02/10 01:29:19;;;;;;;6.72;4.15;;;;;;;12.40;49.96;98044.63;5016656;28;20099;-77
2024/02/10 01:31:46;;;;;;;11.23;4.25;;;;;;;12.43;50.11;98053.97;5017792;28;20084;-78
2024/02/10 01:34:13;;;;;;;9.05;3.97;;;;;;;12.40;50.13;98047.25;5018179;28;20104;-78
2024/02/10 01:36:38;;;;;;;7.82;4.25;;;;;;;12.44;50.36;98059.06;5017805;28;20030;-79
2024/02/10 01:39:03;;;;;;;7.70;4.45;;;;;;;12.43;50.29;98060.03;5017235;28;20079;-77
2024/02/10 01:41:29;;;;;;;8.40;3.75;;;;;;;12.41;50.28;98062.00;5033895;28;20452;-78
2024/02/10 01:43:55;;;;;;;10.07;4.32;;;;;;;12.38;50.10;98051.81;5000760;28;20041;-77
2024/02/10 01:46:21;;;;;;;9.40;4.57;;;;;;;12.37;50.40;98047.53;5017332;28;20041;-80
2024/02/10 01:48:47;;;;;;;6.90;4.25;;;;;;;12.41;50.36;98048.06;5017542;28;20553;-79
2024/02/10 01:51:14;;;;;;;7.78;4.15;;;;;;;12.36;50.39;98043.25;5017286;28;20041;-78
2024/02/10 01:53:40;;;;;;;8.95;4.10;;;;;;;12.39;50.36;98055.25;5033542;28;20406;-79
2024/02/10 01:56:08;;;;;;;6.53;3.70;;;;;;;12.36;50.47;98042.44;5033721;28;20055;-79
2024/02/10 01:58:33;;;;;;;6.90;4.00;;;;;;;12.36;50.49;98039.81;5017313;28;20048;-79
2024/02/10 02:00:59;;;;;;;9.52;4.25;;;;;;;12.35;50.32;98030.31;5016970;28;20140;-78
2024/02/10 02:03:26;;;;;;;8.95;4.40;;;;;;;12.37;50.20;98042.31;5033589;28;20483;-79
2024/02/10 02:05:53;;;;;;;7.88;4.32;;;;;;;12.38;50.20;98037.88;5017222;28;20041;-79
2024/02/10 02:08:20;;;;;;;10.50;4.80;;;;;;;12.36;50.66;98040.63;5017154;28;20041;-78
2024/02/10 02:10:46;;;;;;;7.05;4.20;;;;;;;12.31;50.22;98028.00;5033368;28;20485;-79
2024/02/10 02:13:12;;;;;;;6.50;4.65;;;;;;;12.35;50.46;98038.16;5000585;28;20073;-78
2024/02/10 02:15:37;;;;;;;8.27;4.20;;;;;;;12.35;50.23;98043.41;5034218;28;20064;-77
2024/02/10 02:18:03;;;;;;;6.60;3.88;;;;;;;12.27;50.31;98028.41;5030817;28;20038;-76
2024/02/10 02:20:29;;;;;;;8.60;4.18;;;;;;;12.33;50.41;98038.31;5014242;28;20041;-77
2024/02/10 02:22:55;;;;;;;7.22;4.20;;;;;;;12.29;50.62;98042.22;5030639;28;20620;-77
2024/02/10 02:25:21;;;;;;;8.02;4.35;;;;;;;12.29;50.44;98045.63;5014206;28;20037;-76
2024/02/10 02:27:46;;;;;;;6.85;3.90;;;;;;;12.31;50.28;98055.97;5031356;28;20484;-77
2024/02/10 02:30:12;;;;;;;6.28;4.07;;;;;;;12.24;50.56;98044.41;5031907;28;20032;-76
2024/02/10 02:32:38;;;;;;;7.47;4.03;;;;;;;12.24;50.18;98054.88;5032538;28;20100;-76
2024/02/10 02:35:09;;;;;;;7.53;4.38;;;;;;;12.24;50.52;98052.25;5034409;28;20040;-79
2024/02/10 02:37:41;;;;;;;8.73;4.05;;;;;;;12.17;50.25;98046.78;5017334;28;20042;-76
2024/02/10 02:40:07;;;;;;;7.07;4.20;;;;;;;12.20;50.61;98051.72;5031912;28;20033;-78
2024/02/10 02:42:33;;;;;;;8.25;4.35;;;;;;;12.15;50.58;98045.31;5016624;28;20036;-78
2024/02/10 02:45:03;;;;;;;9.20;4.32;;;;;;;12.17;50.57;98049.41;5034476;28;20025;-77
2024/02/10 02:47:32;;;;;;;6.93;4.63;;;;;;;12.12;50.52;98049.03;5033003;28;20103;-78
2024/02/10 02:50:00;;;;;;;8.77;4.05;;;;;;;12.15;50.67;98053.16;5016510;28;20421;-77
2024/02/10 02:52:30;;;;;;;6.75;4.30;;;;;;;12.08;50.78;98038.03;5032612;28;20064;-78
2024/02/10 02:54:55;;;;;;;7.85;4.00;;;;;;;12.07;50.75;98027.69;5033705;28;20112;-78
2024/02/10 02:57:22;;;;;;;7.35;4.30;;;;;;;12.10;50.75;98040.50;5016182;28;20117;-76
2024/02/10 02:59:49;;;;;;;9.15;4.13;;;;;;;12.09;50.86;98042.28;5032321;28;20465;-77
2024/02/10 03:02:16;;;;;;;8.68;3.85;;;;;;;12.07;50.54;98036.38;5033804;28;20036;-78
2024/02/10 03:04:42;;;;;;;7.78;4.15;;;;;;;12.05;50.57;98032.22;5033777;28;20076;-77
2024/02/10 03:07:08;;;;;;;8.07;4.43;;;;;;;12.05;50.65;98050.53;5033385;28;20049;-78
2024/02/10 03:09:34;;;;;;;9.65;4.35;;;;;;;12.04;50.42;98052.34;5016465;28;20056;-77
2024/02/10 03:11:59;;;;;;;7.38;3.80;;;;;;;12.03;50.57;98061.16;5032698;28;20068;-77
2024/02/10 03:14:25;;;;;;;8.68;4.10;;;;;;;12.01;50.63;98057.88;5033339;28;20033;-78
2024/02/10 03:16:51;;;;;;;7.28;4.20;;;;;;;12.00;50.55;98056.22;5032352;28;20034;-77
2024/02/10 03:19:17;;;;;;;6.50;4.43;;;;;;;12.00;50.55;98061.47;5032105;28;20100;-78
2024/02/10 03:21:42;;;;;;;7.93;4.45;;;;;;;11.99;50.92;98072.88;5033151;28;20079;-78
2024/02/10 03:24:08;;;;;;;9.35;4.20;;;;;;;11.97;51.00;98076.59;5033945;28;20061;-78
2024/02/10 03:26:36;;;;;;;9.45;4.00;;;;;;;11.96;50.90;98073.16;5033170;28;20033;-76
2024/02/10 03:29:02;;;;;;;8.55;4.35;;;;;;;11.90;51.00;98066.66;5015782;28;20080;-78
2024/02/10 03:31:27;;;;;;;8.18;3.90;;;;;;;11.95;50.94;98071.50;5015701;28;20480;-78
2024/02/10 03:33:53;;;;;;;8.32;4.22;;;;;;;11.90;50.63;98068.47;5032970;28;20026;-77
2024/02/10 03:36:18;;;;;;;9.75;4.45;;;;;;;11.89;50.70;98069.44;5015394;28;20041;-77
2024/02/10 03:38:44;;;;;;;6.07;3.90;;;;;;;11.90;50.78;98066.66;5032159;28;20420;-78
2024/02/10 03:41:13;;;;;;;7.32;4.03;;;;;;;11.89;50.64;98065.03;5014923;28;20033;-78
2024/02/10 03:43:39;;;;;;;7.55;4.03;;;;;;;11.86;50.85;98061.84;5031681;28;20136;-78
2024/02/10 03:46:04;;;;;;;7.32;4.20;;;;;;;11.88;51.06;98066.00;5031647;28;20104;-77
2024/02/10 03:48:30;;;;;;;7.75;4.55;;;;;;;11.88;51.04;98073.03;5031547;28;20021;-78
2024/02/10 03:50:55;;;;;;;6.75;4.40;;;;;;;11.86;50.68;98074.94;5032216;28;20036;-77
2024/02/10 03:53:21;;;;;;;8.73;4.65;;;;;;;11.83;51.00;98073.44;5031457;28;20409;-77
2024/02/10 03:55:46;;;;;;;7.28;3.92;;;;;;;11.85;50.77;98075.91;5015032;28;20033;-77
2024/02/10 03:58:16;;;;;;;9.88;4.50;;;;;;;11.81;51.04;98066.69;4998636;28;20037;-77
2024/02/10 04:00:43;;;;;;;10.88;4.90;;;;;;;11.81;50.92;98057.06;5015407;28;20029;-77
2024/02/10 04:03:09;;;;;;;8.07;4.55;;;;;;;11.76;50.95;98051.44;5014960;28;20029;-77
2024/02/10 04:05:39;;;;;;;6.85;3.88;;;;;;;11.79;51.08;98056.38;5031206;28;20033;-76
2024/02/10 04:08:09;;;;;;;6.43;3.97;;;;;;;11.75;51.02;98055.84;5031147;28;20493;-77
2024/02/10 04:10:35;;;;;;;8.30;4.20;;;;;;;11.72;50.93;98058.75;5015802;28;20061;-77
2024/02/10 04:13:05;;;;;;;5.97;4.05;;;;;;;11.73;50.95;98057.78;4998691;28;20077;-77
2024/02/10 04:15:31;;;;;;;8.23;4.55;;;;;;;11.76;51.10;98061.88;5032282;28;20064;-78
2024/02/10 04:17:57;;;;;;;8.98;4.10;;;;;;;11.75;51.04;98057.66;4998349;28;20121;-77
2024/02/10 04:20:25;;;;;;;6.47;4.28;;;;;;;11.74;51.10;98056.81;5030803;28;20032;-78
2024/02/10 04:22:50;;;;;;;7.38;4.05;;;;;;;11.73;51.34;98055.16;5014760;28;20052;-77
2024/02/10 04:25:16;;;;;;;9.15;4.70;;;;;;;11.73;51.08;98059.56;5014354;28;20057;-76
2024/02/10 04:27:42;;;;;;;7.97;4.25;;;;;;;11.73;51.29;98070.00;5014329;28;20087;-77
2024/02/10 04:30:08;;;;;;;6.13;4.20;;;;;;;11.67;51.13;98050.50;5014243;28;20128;-78
2024/02/10 04:32:41;;;;;;;7.65;4.25;;;;;;;11.71;51.03;98061.50;5030620;28;20072;-78
2024/02/10 04:35:06;;;;;;;9.40;4.28;;;;;;;11.67;51.32;98062.72;5015637;28;20033;-78
2024/02/10 04:37:35;;;;;;;8.30;4.32;;;;;;;11.69;51.16;98064.25;5030645;28;20322;-78
2024/02/10 04:40:03;;;;;;;8.52;4.30;;;;;;;11.71;51.37;98075.38;5030503;28;20029;-77
2024/02/10 04:42:28;;;;;;;9.35;4.38;;;;;;;11.66;51.48;98074.16;5014384;28;20029;-78
2024/02/10 04:44:58;;;;;;;11.90;4.82;;;;;;;11.70;51.40;98085.97;5030919;28;20053;-77
2024/02/10 04:47:24;;;;;;;7.68;4.78;;;;;;;11.69;51.32;98095.63;5030909;28;20037;-78
2024/02/10 04:49:50;;;;;;;7.63;4.80;;;;;;;11.66;51.63;98084.63;5014012;28;20031;-77
2024/02/10 04:52:18;;;;;;;9.57;4.47;;;;;;;11.68;51.62;98086.13;5030659;28;20465;-76
2024/02/10 04:54:43;;;;;;;7.45;4.28;;;;;;;11.67;51.73;98074.03;5014838;28;20021;-78
2024/02/10 04:57:09;;;;;;;8.10;4.40;;;;;;;11.68;51.54;98069.63;5013922;28;20565;-78
2024/02/10 04:59:34;;;;;;;8.15;4.57;;;;;;;11.64;51.67;98045.56;5032060;28;20477;-78
2024/02/10 05:02:01;;;;;;;15.07;4.80;;;;;;;11.68;51.53;98061.78;5030776;28;20029;-77
2024/02/10 05:04:26;;;;;;;7.88;4.38;;;;;;;11.62;51.45;98057.91;5017134;28;20393;-78
2024/02/10 05:06:51;;;;;;;7.32;4.28;;;;;;;11.67;51.51;98065.34;5018336;28;20033;-78
2024/02/10 05:09:17;;;;;;;6.80;4.65;;;;;;;11.67;51.72;98074.03;5034612;28;20048;-76
2024/02/10 05:11:43;;;;;;;9.18;4.38;;;;;;;11.65;51.45;98067.28;5035146;28;20504;-78
2024/02/10 05:14:11;;;;;;;9.85;4.80;;;;;;;11.64;51.60;98050.78;5034596;28;20057;-77
2024/02/10 05:16:37;;;;;;;;;;;;;;;11.64;51.35;98040.31;5036201;28;20026;-78
2024/02/10 05:19:02;;;;;;;7.70;3.78;;;;;;;11.58;51.82;98049.53;5034395;28;19909;-78
2024/02/10 05:21:28;;;;;;;9.07;4.28;;;;;;;11.58;51.69;98048.72;5017640;28;20405;-78
2024/02/10 05:23:54;;;;;;;6.28;4.18;;;;;;;11.52;51.60;98042.25;5034122;28;20116;-78
2024/02/10 05:26:19;;;;;;;7.60;4.25;;;;;;;11.57;51.47;98052.28;5017776;28;20037;-78
2024/02/10 05:28:47;;;;;;;9.05;4.70;;;;;;;11.52;51.69;98044.06;5017358;28;20029;-78
2024/02/10 05:31:13;;;;;;;9.50;4.80;;;;;;;11.56;51.65;98059.31;5034526;28;20038;-78
2024/02/10 05:33:42;;;;;;;8.70;4.53;;;;;;;11.53;51.50;98045.72;5017584;28;20037;-79
2024/02/10 05:36:08;;;;;;;9.00;4.75;;;;;;;11.56;51.71;98037.59;5033926;28;20084;-78
2024/02/10 05:38:33;;;;;;;9.13;4.22;;;;;;;11.57;51.34;98041.84;5017501;28;20509;-77
2024/02/10 05:41:04;;;;;;;9.27;4.22;;;;;;;11.64;51.29;98053.41;5017443;28;20086;-78
2024/02/10 05:43:32;;;;;;;13.68;4.50;;;;;;;11.64;51.51;98050.78;5033781;28;20476;-81
2024/02/10 05:46:04;;;;;;;8.10;4.15;;;;;;;11.68;51.37;98059.97;5017995;28;20045;-78
2024/02/10 05:48:30;;;;;;;6.97;4.05;;;;;;;11.67;51.40;98063.56;5033978;28;20167;-77
2024/02/10 05:50:59;;;;;;;7.97;4.30;;;;;;;11.74;51.17;98079.53;5034803;28;20112;-79
2024/02/10 05:53:24;;;;;;;;;;;;;;;11.77;51.48;98087.91;5017393;28;20038;-76
2024/02/10 05:55:50;;;;;;;9.35;4.15;;;;;;;11.73;51.17;98091.78;5016603;28;20411;-80
2024/02/10 05:58:15;;;;;;;8.40;4.78;;;;;;;11.74;51.33;98093.41;5032794;28;20038;-78
2024/02/10 06:00:43;;;;;;;6.72;4.35;;;;;;;11.79;51.14;98100.03;5033601;28;20044;-79
2024/02/10 06:03:09;;;;;;;7.25;4.28;;;;;;;11.79;51.61;98106.06;5034575;28;20048;-78
2024/02/10 06:05:34;;;;;;;9.15;4.97;;;;;;;11.72;51.32;98086.69;5030879;28;20041;-77
2024/02/10 06:08:03;;;;;;;7.55;4.38;;;;;;;11.84;51.23;98097.78;5016282;28;20444;-77
2024/02/10 06:10:28;;;;;;;10.65;4.47;;;;;;;11.87;51.21;98092.28;5032705;28;20045;-78
2024/02/10 06:12:54;;;;;;;9.80;4.28;;;;;;;11.89;51.19;98077.28;5024474;28;20548;-77
2024/02/10 06:15:19;;;;;;;8.07;4.00;;;;;;;11.95;51.10;98089.81;5052733;28;20049;-77
2024/02/10 06:17:47;;;;;;;9.10;4.25;;;;;;;12.01;51.21;98085.81;5036507;28;20025;-77
2024/02/10 06:20:16;;;;;;;7.78;4.60;;;;;;;12.09;50.89;98091.16;5036061;28;20040;-77
2024/02/10 06:22:42;;;;;;;9.98;4.25;;;;;;;12.15;51.00;98098.44;5054134;28;20037;-77
2024/02/10 06:25:11;;;;;;;11.95;4.63;;;;;;;12.21;50.97;98103.09;5036042;28;20035;-77
2024/02/10 06:27:41;;;;;;;7.88;4.03;;;;;;;12.27;50.67;98101.69;5052453;28;20435;-75
2024/02/10 06:30:08;;;;;;;10.20;4.28;;;;;;;12.33;50.52;98095.06;5052702;28;20036;-74
2024/02/10 06:32:36;;;;;;;6.93;3.97;;;;;;;12.46;50.43;98106.03;5035835;28;20519;-74
2024/02/10 06:35:02;;;;;;;5.55;3.67;;;;;;;12.53;50.49;98103.69;5052634;28;20033;-76
2024/02/10 06:37:32;;;;;;;7.45;4.22;;;;;;;12.53;50.43;98096.63;5053697;28;20033;-75
2024/02/10 06:39:58;;;;;;;8.82;4.50;;;;;;;12.62;50.30;98106.25;5045280;28;20029;-77
2024/02/10 06:42:25;;;;;;;8.52;4.32;;;;;;;12.67;50.29;98100.56;5060053;28;20037;-75
2024/02/10 06:44:51;;;;;;;8.82;4.45;;;;;;;12.74;50.28;98108.66;5042836;28;20048;-77
2024/02/10 06:47:17;;;;;;;9.95;4.53;;;;;;;12.79;50.15;98117.75;5055952;28;20048;-74
2024/02/10 06:49:42;;;;;;;7.40;4.25;;;;;;;12.81;50.05;98110.56;5042108;28;20075;-74
2024/02/10 06:52:08;;;;;;;10.75;4.72;;;;;;;12.83;49.98;98108.59;5041077;28;20040;-75
2024/02/10 06:54:33;;;;;;;6.82;4.47;;;;;;;12.94;49.82;98122.47;5057950;28;20049;-75
2024/02/10 06:57:01;;;;;;;9.00;4.57;;;;;;;12.94;50.00;98123.28;5050648;28;20041;-77
2024/02/10 06:59:27;;;;;;;8.48;4.85;;;;;;;13.03;50.11;98147.81;5033892;28;20119;-76
2024/02/10 07:01:54;;;;;;;12.38;5.30;;;;;;;13.09;49.70;98147.19;5016989;28;20078;-77
2024/02/10 07:04:23;;;;;;;6.85;4.68;;;;;;;13.15;49.75;98146.59;5033342;28;20132;-72
2024/02/10 07:06:53;;;;;;;12.00;5.03;;;;;;;13.24;49.51;98159.81;5033582;28;20037;-76
2024/02/10 07:09:21;;;;;;;10.27;4.85;;;;;;;13.33;49.54;98162.41;5049307;28;20051;-75
2024/02/10 07:11:50;;;;;;;13.85;5.15;;;;;;;13.41;49.54;98164.28;5050309;28;20035;-76
2024/02/10 07:14:17;;;;;;;11.70;5.38;;;;;;;13.47;49.04;98165.47;5017135;28;20037;-76
2024/02/10 07:16:43;;;;;;;12.88;5.47;;;;;;;13.54;48.63;98156.84;5033325;28;20108;-75
2024/02/10 07:19:10;;;;;;;8.65;5.13;;;;;;;13.65;48.74;98170.72;5050198;28;20119;-75
2024/02/10 07:21:35;;;;;;;9.38;5.30;;;;;;;13.72;48.50;98154.22;5049260;28;20106;-76
2024/02/10 07:24:05;;;;;;;14.68;5.75;;;;;;;13.92;48.30;98160.13;5056416;28;20025;-76
2024/02/10 07:26:32;;;;;;;11.70;5.85;;;;;;;14.06;47.76;98161.38;5070023;28;20045;-77
2024/02/10 07:28:58;;;;;;;10.48;5.10;;;;;;;14.18;47.86;98163.75;5069939;28;20027;-75
2024/02/10 07:31:26;;;;;;;9.90;5.18;;;;;;;14.32;47.47;98164.97;5069142;28;20040;-74
2024/02/10 07:33:58;;;;;;;9.57;5.53;;;;;;;14.47;47.30;98160.81;5069557;28;20464;-74
2024/02/10 07:36:35;;;;;;;10.10;5.20;;;;;;;14.76;46.95;98173.59;5053468;28;20278;-76
2024/02/10 07:39:06;;;;;;;9.30;5.15;;;;;;;15.17;46.47;98154.53;5070217;28;20035;-75
2024/02/10 07:41:38;;;;;;;8.52;5.30;;;;;;;16.16;45.33;98160.72;5052864;28;20040;-76
2024/02/10 07:44:06;;;;;;;13.02;5.57;;;;;;;17.49;42.54;98161.84;5053647;28;20047;-77
2024/02/10 07:46:34;;;;;;;;;;;;;;;18.75;40.56;98163.00;5036595;28;20040;-77
2024/02/10 07:49:04;;;;;;;8.43;4.95;;;;;;;19.66;39.10;98157.34;5069412;28;19923;-74
2024/02/10 07:51:30;;;;;;;7.97;4.22;;;;;;;20.68;37.64;98159.75;5053151;28;20047;-75
2024/02/10 07:53:58;;;;;;;8.95;4.40;;;;;;;21.43;36.43;98152.69;5062781;28;20068;-78
2024/02/10 07:56:24;;;;;;;12.52;4.80;;;;;;;22.19;35.50;98164.00;5050067;28;20079;-78
2024/02/10 07:58:49;;;;;;;59.45;4.93;;;;;;;22.54;36.38;98151.28;5049290;28;20041;-76
2024/02/10 08:01:18;;;;;;;33.22;4.90;;;;;;;22.69;35.60;98147.56;5032598;28;20124;-74
2024/02/10 08:03:44;;;;;;;15.40;4.10;;;;;;;23.13;33.77;98151.31;5050108;28;20033;-75
2024/02/10 08:06:09;;;;;;;12.35;4.15;;;;;;;23.44;32.94;98139.88;5049120;28;20045;-75
2024/02/10 08:08:35;;;;;;;8.63;4.13;;;;;;;23.69;32.19;98146.25;5031366;28;20727;-77
2024/02/10 08:11:00;;;;;;;12.27;4.00;;;;;;;23.85;31.68;98145.75;5050021;28;20420;-78
2024/02/10 08:13:27;;;;;;;10.25;3.97;;;;;;;24.12;31.05;98141.00;5049509;28;20029;-75
2024/02/10 08:15:54;;;;;;;9.73;3.90;;;;;;;24.49;30.16;98126.91;5049005;28;20033;-76
2024/02/10 08:18:19;;;;;;;10.85;4.07;;;;;;;24.53;30.06;98128.09;5032323;28;20033;-74
2024/02/10 08:20:45;;;;;;;7.55;4.00;;;;;;;24.73;28.65;98134.06;5048329;28;20083;-73
2024/02/10 08:23:12;;;;;;;10.57;3.95;;;;;;;24.98;28.41;98137.66;5049533;28;20114;-75
2024/02/10 08:25:38;;;;;;;8.10;3.83;;;;;;;25.19;28.70;98139.03;5068497;28;20106;-76
2024/02/10 08:28:06;;;;;;;10.18;4.57;;;;;;;25.37;28.52;98152.38;5035627;28;20098;-76
2024/02/10 08:30:31;;;;;;;;;;;;;;;25.21;28.65;98150.31;5052339;28;20021;-76
2024/02/10 08:33:00;;;;;;;16.95;7.40;;;;;;;25.39;27.99;98149.47;5052321;28;19923;-78
2024/02/10 08:35:27;;;;;;;12.70;6.88;;;;;;;25.91;28.14;98152.38;5068546;28;20399;-77
2024/02/10 08:37:54;;;;;;;12.30;6.82;;;;;;;26.56;27.78;98163.22;5068720;28;20085;-73
2024/02/10 08:40:19;;;;;;;12.57;6.50;;;;;;;27.03;27.97;98161.28;5039711;28;20483;-77
2024/02/10 08:42:46;;;;;;;14.10;6.18;;;;;;;27.48;27.77;98162.41;5072881;28;20059;-78
2024/02/10 08:45:14;;;;;;;13.50;5.93;;;;;;;27.92;27.13;98154.56;5040053;28;20094;-79
2024/02/10 08:47:40;;;;;;;;;;;;;;;28.29;26.77;98155.94;5074812;28;20467;-78
2024/02/10 08:50:06;;;;;;;7.50;5.15;;;;;;;28.60;26.12;98162.56;5074711;28;19912;-79
2024/02/10 08:52:31;;;;;;;8.63;5.38;;;;;;;28.89;25.88;98154.34;5038328;28;20064;-79
2024/02/10 08:54:57;;;;;;;8.23;5.30;;;;;;;29.16;25.19;98158.94;5042088;28;20045;-78
2024/02/10 08:57:25;;;;;;;8.52;5.10;;;;;;;29.41;25.05;98153.03;5036380;28;20140;-77
2024/02/10 08:59:51;;;;;;;8.15;4.65;;;;;;;29.50;24.66;98161.47;5036924;28;20025;-79
2024/02/10 09:02:22;;;;;;;8.40;4.80;;;;;;;29.71;24.96;98157.09;5052435;28;20377;-79
2024/02/10 09:04:49;;;;;;;11.85;5.10;;;;;;;29.88;24.60;98148.91;5053609;28;20037;-79
2024/02/10 09:07:18;;;;;;;9.25;4.70;;;;;;;30.10;24.34;98143.44;5051940;28;20036;-77
2024/02/10 09:09:45;;;;;;;7.97;4.60;;;;;;;30.08;24.44;98143.69;5037274;28;20033;-79
2024/02/10 09:12:12;;;;;;;8.45;4.57;;;;;;;30.18;24.46;98142.94;5036548;28;20090;-77
2024/02/10 09:14:38;;;;;;;7.78;4.25;;;;;;;29.97;24.24;98133.09;5020045;28;20039;-80
2024/02/10 09:17:03;;;;;;;8.70;4.47;;;;;;;29.72;24.85;98132.63;5033133;28;20119;-77
2024/02/10 09:19:29;;;;;;;8.48;4.60;;;;;;;30.31;24.08;98139.81;5048897;28;20037;-79
2024/02/10 09:21:55;;;;;;;8.45;4.43;;;;;;;30.66;23.71;98129.47;5032394;28;20037;-78
2024/02/10 09:24:25;;;;;;;8.68;4.43;;;;;;;30.82;23.32;98127.66;5051009;28;20523;-77
2024/02/10 09:26:55;;;;;;;7.50;3.80;;;;;;;31.07;22.96;98124.25;5039909;28;20028;-78
2024/02/10 09:29:21;;;;;;;7.78;4.30;;;;;;;31.74;22.54;98133.28;5055184;28;20123;-78
2024/02/10 09:31:47;;;;;;;8.10;4.20;;;;;;;32.55;21.21;98124.53;5039306;28;20148;-78
2024/02/10 09:34:13;;;;;;;7.35;4.40;;;;;;;32.76;21.06;98120.66;5055790;28;20040;-77
2024/02/10 09:36:43;;;;;;;7.22;4.00;;;;;;;32.44;21.00;98126.44;5055387;28;20407;-78
2024/02/10 09:39:16;;;;;;;10.40;4.25;;;;;;;33.87;19.35;98127.56;5073171;28;20037;-78
2024/02/10 09:41:41;;;;;;;8.20;4.35;;;;;;;34.41;19.17;98122.16;5056650;28;20032;-78
2024/02/10 09:44:09;;;;;;;6.15;3.65;;;;;;;32.28;20.72;98118.38;5038722;28;20506;-78
2024/02/10 09:46:36;;;;;;;6.65;4.20;;;;;;;31.05;21.98;98128.31;5071886;28;20460;-78
2024/02/10 09:49:07;;;;;;;7.80;4.40;;;;;;;30.22;23.36;98124.38;5072965;28;20032;-79
2024/02/10 09:51:37;;;;;;;8.10;3.88;;;;;;;29.50;23.82;98119.25;5055973;28;20036;-79
2024/02/10 09:54:03;;;;;;;9.07;4.30;;;;;;;29.02;24.53;98121.72;5032301;28;20043;-79
2024/02/10 09:56:29;;;;;;;7.95;4.40;;;;;;;29.02;24.53;98126.31;5018733;28;20404;-80
2024/02/10 09:58:54;;;;;;;7.65;4.38;;;;;;;29.16;24.59;98126.69;5018399;28;20511;-78
2024/02/10 10:01:20;;;;;;;6.35;4.10;;;;;;;29.21;24.75;98110.69;5035022;28;20489;-78
2024/02/10 10:03:45;;;;;;;9.27;4.35;;;;;;;29.25;24.51;98122.53;5035144;28;20033;-77
2024/02/10 10:06:11;;;;;;;9.45;4.45;;;;;;;28.90;24.76;98113.00;5034559;28;20470;-80
2024/02/10 10:08:38;;;;;;;8.10;4.50;;;;;;;28.58;25.36;98124.44;5034055;28;20063;-79
2024/02/10 10:11:07;;;;;;;8.43;4.10;;;;;;;28.17;25.67;98117.69;5019144;28;20025;-78
2024/02/10 10:13:34;;;;;;;6.65;4.20;;;;;;;27.80;26.09;98114.44;5034670;28;20029;-80
2024/02/10 10:16:05;;;;;;;7.43;4.37;;;;;;;27.46;26.73;98108.22;5030839;28;20500;-79
2024/02/10 10:18:31;;;;;;;6.25;4.00;;;;;;;26.97;27.09;98097.16;5015186;28;20063;-81
2024/02/10 10:20:57;;;;;;;10.13;4.20;;;;;;;26.50;27.10;98101.56;5030214;28;20377;-77
2024/02/10 10:23:22;;;;;;;8.80;3.92;;;;;;;26.12;27.36;98107.41;5034314;28;20033;-79
2024/02/10 10:25:48;;;;;;;8.45;3.80;;;;;;;25.80;27.19;98105.84;5070886;28;20044;-79
2024/02/10 10:28:16;;;;;;;9.10;4.13;;;;;;;25.69;27.53;98112.00;5071050;28;20492;-79
2024/02/10 10:30:46;;;;;;;4.78;3.58;;;;;;;25.38;27.78;98113.09;5070397;28;20033;-79
2024/02/10 10:33:11;;;;;;;18.70;3.97;;;;;;;24.99;28.32;98101.94;5054722;28;20067;-80
2024/02/10 10:35:38;;;;;;;7.55;4.22;;;;;;;24.73;28.54;98098.53;5053878;28;20033;-74
2024/02/10 10:38:05;;;;;;;11.93;4.15;;;;;;;24.51;28.49;98101.66;5037423;28;20028;-76
2024/02/10 10:40:32;;;;;;;6.65;4.55;;;;;;;24.43;28.43;98093.13;5035749;28;20037;-75
2024/02/10 10:43:00;;;;;;;7.35;4.38;;;;;;;24.76;28.77;98090.09;5034348;28;20061;-74
2024/02/10 10:45:29;;;;;;;6.75;4.20;;;;;;;24.70;29.95;98089.13;5049879;28;20445;-75
2024/02/10 10:47:54;;;;;;;5.22;4.13;;;;;;;24.52;32.07;98095.25;5018919;28;20040;-77
2024/02/10 10:50:20;;;;;;;18.33;4.30;;;;;;;24.41;31.57;98092.53;5017086;28;20404;-77
2024/02/10 10:52:46;;;;;;;8.35;4.18;;;;;;;24.19;31.06;98093.78;5033567;28;20135;-77
2024/02/10 10:55:12;;;;;;;8.20;4.10;;;;;;;24.01;30.68;98077.75;5066705;28;20533;-84
2024/02/10 10:57:37;;;;;;;9.88;4.22;;;;;;;24.00;30.45;98079.63;5037100;28;20037;-84
2024/02/10 11:00:15;;;;;;;9.73;4.90;;;;;;;23.92;30.45;98074.53;5053902;28;20035;-84
2024/02/10 11:02:43;;;;;;;8.75;5.45;;;;;;;23.87;30.28;98084.25;5054050;28;20058;-85
2024/02/10 11:05:10;;;;;;;10.70;5.30;;;;;;;23.80;30.50;98094.94;5053782;28;20388;-84
2024/02/10 11:07:37;;;;;;;11.35;5.47;;;;;;;23.67;30.00;98098.50;5052654;28;20040;-85
2024/02/10 11:10:04;;;;;;;10.82;5.25;;;;;;;23.60;30.16;98085.25;5053814;28;20050;-84
2024/02/10 11:12:31;;;;;;;9.32;5.65;;;;;;;23.59;30.32;98086.28;5069284;28;20066;-84
2024/02/10 11:14:57;;;;;;;11.57;6.03;;;;;;;23.48;30.82;98087.81;5070099;28;20029;-85
2024/02/10 11:17:29;;;;;;;12.05;7.05;;;;;;;23.46;30.93;98086.38;5033175;28;20033;-84
2024/02/10 11:20:06;;;;;;;14.13;7.72;;;;;;;23.28;31.04;98076.47;4999057;28;20393;-85
2024/02/10 11:22:36;;;;;;;11.43;8.25;;;;;;;23.17;31.13;98082.50;4996937;28;20053;-84
2024/02/10 11:25:11;;;;;;;14.25;8.95;;;;;;;23.06;31.49;98083.97;5027415;28;20497;-83
2024/02/10 11:27:40;;;;;;;14.35;8.50;;;;;;;23.04;31.52;98083.34;5053240;28;20767;-84
2024/02/10 11:30:07;;;;;;;12.10;8.75;;;;;;;22.98;31.42;98065.56;5070023;28;20028;-84
2024/02/10 11:32:34;;;;;;;17.27;8.73;;;;;;;23.06;31.36;98074.13;5052654;28;20048;-83